Marble Falls' Hourly Summary for Sunday, July 8, 2018
Hour Temp
(f)
RH
(%)
Solar Rad.
(MJ/m2)
Rainfall
(in)
Wind
(mph)
7/8/2018 12:00 AM 74 100 0 0 0.43
7/8/2018 1:00 AM 74 100 0 0 0.03
7/8/2018 2:00 AM 73 100 0 0 0
7/8/2018 3:00 AM 73 100 0 0 0.08
7/8/2018 4:00 AM 72 100 0 0 0.08
7/8/2018 5:00 AM 72 100 0 0 0
7/8/2018 6:00 AM 71 100 0 0 0
7/8/2018 7:00 AM 71 100 0.11 0 0.07
7/8/2018 8:00 AM 74 100 0.4 0 0.07
7/8/2018 9:00 AM 77 89 1.19 0 0.41
7/8/2018 10:00 AM 79 82 1.6 0 0.41
7/8/2018 11:00 AM 82 76 2.37 0 1.34
7/8/2018 12:00 PM 85 62 3.05 0 1.7
7/8/2018 1:00 PM 87 57 3.08 0 1.91
7/8/2018 2:00 PM 89 51 3.08 0 2.28
7/8/2018 3:00 PM 89 47 2.19 0.04 3.78
7/8/2018 4:00 PM 89 71 1.91 0.01 3.78
7/8/2018 5:00 PM 79 71 0.42 0 3.31
7/8/2018 6:00 PM 88 69 1.28 0 2.33
7/8/2018 7:00 PM 88 52 1.28 0 2.56
7/8/2018 8:00 PM 87 60 0.54 0 2.81
7/8/2018 9:00 PM 82 71 0.04 0 2.81
7/8/2018 10:00 PM 80 78 0 0 1.41
7/8/2018 11:00 PM 78 85 0 0 0.64
Data Summary 79 80 22.54 0.05 1.34